Terminal Aerodrome Forecast
Issued by NWS Goodland, KS

Home | Current Version | Previous Version | Text Only | Print | Product List | Glossary On
Versions: 1 2 3 4 5 6 7 8 9 10 11 12 13
000
FTUS43 KGLD 271120
TAFGLD
TAF
KGLD 271120Z 2712/2812 21011KT P6SM SCT100 BKN150
     FM271500 24014G21KT P6SM VCSH BKN120
     FM271700 28013G19KT P6SM VCSH BKN100
     FM272200 33010KT P6SM VCSH BKN080 PROB30 2802/2804 -SHRA BKN050
     FM280500 33007KT P6SM BKN050=

USA.gov is the U.S. government's official web portal to all federal, state and local government web resources and services.